sensor_id;sensor_type;location;lat;lon;timestamp;P1;durP1;ratioP1;P2;durP2;ratioP2
20729;SDS011;10526;50.850;12.928;2024-02-15T00:04:11;1.92;;;1.40;;
20729;SDS011;10526;50.850;12.928;2024-02-15T00:08:33;2.10;;;1.48;;
20729;SDS011;10526;50.850;12.928;2024-02-15T00:12:56;1.65;;;1.35;;
20729;SDS011;10526;50.850;12.928;2024-02-15T00:17:18;3.35;;;1.50;;
20729;SDS011;10526;50.850;12.928;2024-02-15T00:21:42;2.53;;;1.50;;
20729;SDS011;10526;50.850;12.928;2024-02-15T00:26:05;3.17;;;1.80;;
20729;SDS011;10526;50.850;12.928;2024-02-15T00:30:27;2.08;;;1.40;;
20729;SDS011;10526;50.850;12.928;2024-02-15T00:34:50;3.72;;;1.60;;
20729;SDS011;10526;50.850;12.928;2024-02-15T00:39:12;2.28;;;1.15;;
20729;SDS011;10526;50.850;12.928;2024-02-15T00:43:35;2.22;;;1.05;;
20729;SDS011;10526;50.850;12.928;2024-02-15T00:47:57;2.85;;;1.27;;
20729;SDS011;10526;50.850;12.928;2024-02-15T00:52:19;3.10;;;1.10;;
20729;SDS011;10526;50.850;12.928;2024-02-15T00:56:41;0.60;;;0.60;;
20729;SDS011;10526;50.850;12.928;2024-02-15T01:01:03;2.28;;;0.90;;
20729;SDS011;10526;50.850;12.928;2024-02-15T01:05:25;3.92;;;1.35;;
20729;SDS011;10526;50.850;12.928;2024-02-15T01:09:48;2.05;;;1.13;;
20729;SDS011;10526;50.850;12.928;2024-02-15T01:14:10;1.30;;;1.20;;
20729;SDS011;10526;50.850;12.928;2024-02-15T01:18:31;1.90;;;1.30;;
20729;SDS011;10526;50.850;12.928;2024-02-15T01:22:54;4.10;;;1.20;;
20729;SDS011;10526;50.850;12.928;2024-02-15T01:27:16;1.60;;;1.20;;
20729;SDS011;10526;50.850;12.928;2024-02-15T01:31:38;3.20;;;1.20;;
20729;SDS011;10526;50.850;12.928;2024-02-15T01:36:00;1.98;;;1.17;;
20729;SDS011;10526;50.850;12.928;2024-02-15T01:40:22;1.15;;;1.05;;
20729;SDS011;10526;50.850;12.928;2024-02-15T01:44:44;1.70;;;1.17;;
20729;SDS011;10526;50.850;12.928;2024-02-15T01:49:09;1.10;;;1.00;;
20729;SDS011;10526;50.850;12.928;2024-02-15T01:53:31;2.20;;;1.20;;
20729;SDS011;10526;50.850;12.928;2024-02-15T01:57:54;0.95;;;0.90;;
20729;SDS011;10526;50.850;12.928;2024-02-15T02:02:16;1.20;;;1.10;;
20729;SDS011;10526;50.850;12.928;2024-02-15T02:06:41;2.15;;;1.08;;
20729;SDS011;10526;50.850;12.928;2024-02-15T02:11:03;1.30;;;1.02;;
20729;SDS011;10526;50.850;12.928;2024-02-15T02:15:25;4.47;;;1.50;;
20729;SDS011;10526;50.850;12.928;2024-02-15T02:19:47;1.85;;;1.30;;
20729;SDS011;10526;50.850;12.928;2024-02-15T02:24:13;1.77;;;1.52;;
20729;SDS011;10526;50.850;12.928;2024-02-15T02:28:42;1.33;;;1.17;;
20729;SDS011;10526;50.850;12.928;2024-02-15T02:33:04;1.90;;;1.20;;
20729;SDS011;10526;50.850;12.928;2024-02-15T02:37:28;2.33;;;1.27;;
20729;SDS011;10526;50.850;12.928;2024-02-15T02:41:50;2.70;;;1.50;;
20729;SDS011;10526;50.850;12.928;2024-02-15T02:46:12;1.88;;;1.27;;
20729;SDS011;10526;50.850;12.928;2024-02-15T02:50:34;2.80;;;1.45;;
20729;SDS011;10526;50.850;12.928;2024-02-15T02:54:56;1.17;;;1.08;;
20729;SDS011;10526;50.850;12.928;2024-02-15T02:59:19;2.60;;;1.38;;
20729;SDS011;10526;50.850;12.928;2024-02-15T03:03:41;2.80;;;1.50;;
20729;SDS011;10526;50.850;12.928;2024-02-15T03:08:04;7.07;;;2.25;;
20729;SDS011;10526;50.850;12.928;2024-02-15T03:12:26;2.75;;;1.40;;
20729;SDS011;10526;50.850;12.928;2024-02-15T03:16:48;2.63;;;1.60;;
20729;SDS011;10526;50.850;12.928;2024-02-15T03:21:10;2.25;;;1.33;;
20729;SDS011;10526;50.850;12.928;2024-02-15T03:25:32;1.98;;;1.30;;
20729;SDS011;10526;50.850;12.928;2024-02-15T03:29:56;1.73;;;1.35;;
20729;SDS011;10526;50.850;12.928;2024-02-15T03:34:18;2.42;;;1.48;;
20729;SDS011;10526;50.850;12.928;2024-02-15T03:38:43;6.45;;;1.60;;
20729;SDS011;10526;50.850;12.928;2024-02-15T03:43:07;7.10;;;2.63;;
20729;SDS011;10526;50.850;12.928;2024-02-15T03:47:30;3.88;;;1.73;;
20729;SDS011;10526;50.850;12.928;2024-02-15T03:51:51;2.47;;;1.42;;
20729;SDS011;10526;50.850;12.928;2024-02-15T03:56:16;3.35;;;1.95;;
20729;SDS011;10526;50.850;12.928;2024-02-15T04:00:38;4.70;;;2.03;;
20729;SDS011;10526;50.850;12.928;2024-02-15T04:05:01;4.30;;;2.15;;
20729;SDS011;10526;50.850;12.928;2024-02-15T04:09:26;5.68;;;2.70;;
20729;SDS011;10526;50.850;12.928;2024-02-15T04:13:48;5.85;;;2.60;;
20729;SDS011;10526;50.850;12.928;2024-02-15T04:18:10;6.97;;;2.45;;
20729;SDS011;10526;50.850;12.928;2024-02-15T04:22:34;4.15;;;2.20;;
20729;SDS011;10526;50.850;12.928;2024-02-15T04:26:58;4.68;;;2.30;;
20729;SDS011;10526;50.850;12.928;2024-02-15T04:31:21;5.93;;;2.55;;
20729;SDS011;10526;50.850;12.928;2024-02-15T04:35:47;4.80;;;2.35;;
20729;SDS011;10526;50.850;12.928;2024-02-15T04:40:11;3.33;;;2.00;;
20729;SDS011;10526;50.850;12.928;2024-02-15T04:44:35;5.40;;;2.55;;
20729;SDS011;10526;50.850;12.928;2024-02-15T04:48:57;5.43;;;2.72;;
20729;SDS011;10526;50.850;12.928;2024-02-15T04:53:20;4.93;;;2.38;;
20729;SDS011;10526;50.850;12.928;2024-02-15T04:57:43;6.05;;;2.67;;
20729;SDS011;10526;50.850;12.928;2024-02-15T05:02:05;8.35;;;2.95;;
20729;SDS011;10526;50.850;12.928;2024-02-15T05:06:31;5.97;;;2.40;;
20729;SDS011;10526;50.850;12.928;2024-02-15T05:10:53;6.47;;;2.50;;
20729;SDS011;10526;50.850;12.928;2024-02-15T05:15:17;4.90;;;2.90;;
20729;SDS011;10526;50.850;12.928;2024-02-15T05:19:44;8.65;;;3.13;;
20729;SDS011;10526;50.850;12.928;2024-02-15T05:24:06;5.25;;;2.50;;
20729;SDS011;10526;50.850;12.928;2024-02-15T05:28:28;5.57;;;2.95;;
20729;SDS011;10526;50.850;12.928;2024-02-15T05:32:51;7.30;;;2.50;;
20729;SDS011;10526;50.850;12.928;2024-02-15T05:37:15;5.90;;;2.60;;
20729;SDS011;10526;50.850;12.928;2024-02-15T05:41:38;7.07;;;2.45;;
20729;SDS011;10526;50.850;12.928;2024-02-15T05:46:01;6.20;;;2.67;;
20729;SDS011;10526;50.850;12.928;2024-02-15T05:50:24;4.55;;;2.72;;
20729;SDS011;10526;50.850;12.928;2024-02-15T05:54:48;4.40;;;2.55;;
20729;SDS011;10526;50.850;12.928;2024-02-15T05:59:10;4.10;;;2.50;;
20729;SDS011;10526;50.850;12.928;2024-02-15T06:03:33;4.55;;;2.30;;
20729;SDS011;10526;50.850;12.928;2024-02-15T06:07:58;4.65;;;2.40;;
20729;SDS011;10526;50.850;12.928;2024-02-15T06:12:20;4.53;;;2.50;;
20729;SDS011;10526;50.850;12.928;2024-02-15T06:16:43;5.80;;;2.70;;
20729;SDS011;10526;50.850;12.928;2024-02-15T06:21:05;5.03;;;2.75;;
20729;SDS011;10526;50.850;12.928;2024-02-15T06:25:27;6.93;;;3.03;;
20729;SDS011;10526;50.850;12.928;2024-02-15T06:29:50;7.07;;;2.45;;
20729;SDS011;10526;50.850;12.928;2024-02-15T06:34:30;6.32;;;2.80;;
20729;SDS011;10526;50.850;12.928;2024-02-15T06:39:11;5.43;;;3.13;;
20729;SDS011;10526;50.850;12.928;2024-02-15T06:43:52;7.78;;;3.20;;
20729;SDS011;10526;50.850;12.928;2024-02-15T06:48:14;10.07;;;3.88;;
20729;SDS011;10526;50.850;12.928;2024-02-15T06:52:36;10.00;;;4.28;;
20729;SDS011;10526;50.850;12.928;2024-02-15T06:56:58;10.05;;;4.13;;
20729;SDS011;10526;50.850;12.928;2024-02-15T07:01:20;11.32;;;4.45;;
20729;SDS011;10526;50.850;12.928;2024-02-15T07:05:43;11.50;;;4.45;;
20729;SDS011;10526;50.850;12.928;2024-02-15T07:10:06;9.45;;;4.47;;
20729;SDS011;10526;50.850;12.928;2024-02-15T07:14:29;11.98;;;4.28;;
20729;SDS011;10526;50.850;12.928;2024-02-15T07:18:51;10.35;;;4.20;;
20729;SDS011;10526;50.850;12.928;2024-02-15T07:23:14;9.63;;;4.03;;
20729;SDS011;10526;50.850;12.928;2024-02-15T07:27:36;8.10;;;3.97;;
20729;SDS011;10526;50.850;12.928;2024-02-15T07:32:00;10.20;;;3.72;;
20729;SDS011;10526;50.850;12.928;2024-02-15T07:36:25;7.47;;;3.70;;
20729;SDS011;10526;50.850;12.928;2024-02-15T07:40:49;9.77;;;3.17;;
20729;SDS011;10526;50.850;12.928;2024-02-15T07:45:11;7.25;;;3.28;;
20729;SDS011;10526;50.850;12.928;2024-02-15T07:49:33;6.00;;;2.85;;
20729;SDS011;10526;50.850;12.928;2024-02-15T07:53:55;6.60;;;2.85;;
20729;SDS011;10526;50.850;12.928;2024-02-15T07:58:17;7.10;;;3.10;;
20729;SDS011;10526;50.850;12.928;2024-02-15T08:02:39;7.07;;;2.95;;
20729;SDS011;10526;50.850;12.928;2024-02-15T08:07:02;7.70;;;3.40;;
20729;SDS011;10526;50.850;12.928;2024-02-15T08:11:24;5.93;;;3.00;;
20729;SDS011;10526;50.850;12.928;2024-02-15T08:15:48;8.45;;;3.35;;
20729;SDS011;10526;50.850;12.928;2024-02-15T08:20:13;8.88;;;3.75;;
20729;SDS011;10526;50.850;12.928;2024-02-15T08:24:36;8.60;;;3.75;;
20729;SDS011;10526;50.850;12.928;2024-02-15T08:28:58;8.98;;;3.92;;
20729;SDS011;10526;50.850;12.928;2024-02-15T08:33:20;6.50;;;3.28;;
20729;SDS011;10526;50.850;12.928;2024-02-15T08:37:42;7.20;;;3.17;;
20729;SDS011;10526;50.850;12.928;2024-02-15T08:42:08;7.25;;;2.92;;
20729;SDS011;10526;50.850;12.928;2024-02-15T08:46:30;8.52;;;3.47;;
20729;SDS011;10526;50.850;12.928;2024-02-15T08:50:52;8.88;;;3.60;;
20729;SDS011;10526;50.850;12.928;2024-02-15T08:55:14;7.38;;;2.90;;
20729;SDS011;10526;50.850;12.928;2024-02-15T08:59:38;5.05;;;2.70;;
20729;SDS011;10526;50.850;12.928;2024-02-15T09:04:00;6.75;;;2.97;;
20729;SDS011;10526;50.850;12.928;2024-02-15T09:08:22;8.48;;;3.05;;
20729;SDS011;10526;50.850;12.928;2024-02-15T09:12:44;7.82;;;3.00;;
20729;SDS011;10526;50.850;12.928;2024-02-15T09:17:11;5.22;;;2.63;;
20729;SDS011;10526;50.850;12.928;2024-02-15T09:21:33;5.35;;;2.42;;
20729;SDS011;10526;50.850;12.928;2024-02-15T09:25:55;6.15;;;2.60;;
20729;SDS011;10526;50.850;12.928;2024-02-15T09:30:17;7.50;;;2.90;;
20729;SDS011;10526;50.850;12.928;2024-02-15T09:34:39;7.15;;;2.85;;
20729;SDS011;10526;50.850;12.928;2024-02-15T09:39:02;5.20;;;2.45;;
20729;SDS011;10526;50.850;12.928;2024-02-15T09:43:24;6.75;;;2.50;;
20729;SDS011;10526;50.850;12.928;2024-02-15T09:47:47;9.02;;;3.03;;
20729;SDS011;10526;50.850;12.928;2024-02-15T09:52:11;8.45;;;2.67;;
20729;SDS011;10526;50.850;12.928;2024-02-15T09:56:37;6.18;;;2.50;;
20729;SDS011;10526;50.850;12.928;2024-02-15T10:01:02;6.25;;;2.70;;
20729;SDS011;10526;50.850;12.928;2024-02-15T10:05:31;6.65;;;2.60;;
20729;SDS011;10526;50.850;12.928;2024-02-15T10:09:54;7.25;;;2.38;;
20729;SDS011;10526;50.850;12.928;2024-02-15T10:14:19;5.85;;;2.60;;
20729;SDS011;10526;50.850;12.928;2024-02-15T10:18:42;6.45;;;2.58;;
20729;SDS011;10526;50.850;12.928;2024-02-15T10:27:41;6.88;;;2.67;;
20729;SDS011;10526;50.850;12.928;2024-02-15T10:32:07;6.43;;;2.42;;
20729;SDS011;10526;50.850;12.928;2024-02-15T10:36:31;6.35;;;2.15;;
20729;SDS011;10526;50.850;12.928;2024-02-15T10:41:02;6.45;;;2.30;;
20729;SDS011;10526;50.850;12.928;2024-02-15T10:45:34;7.15;;;2.65;;
20729;SDS011;10526;50.850;12.928;2024-02-15T10:49:59;6.22;;;2.40;;
20729;SDS011;10526;50.850;12.928;2024-02-15T10:59:04;4.03;;;2.20;;
20729;SDS011;10526;50.850;12.928;2024-02-15T11:03:53;5.28;;;2.33;;
20729;SDS011;10526;50.850;12.928;2024-02-15T11:08:21;5.75;;;2.65;;
20729;SDS011;10526;50.850;12.928;2024-02-15T11:12:43;6.60;;;2.13;;
20729;SDS011;10526;50.850;12.928;2024-02-15T11:17:10;6.10;;;2.40;;
20729;SDS011;10526;50.850;12.928;2024-02-15T11:21:53;7.22;;;2.65;;
20729;SDS011;10526;50.850;12.928;2024-02-15T11:31:08;7.35;;;2.83;;
20729;SDS011;10526;50.850;12.928;2024-02-15T11:35:31;9.55;;;3.13;;
20729;SDS011;10526;50.850;12.928;2024-02-15T11:39:58;7.57;;;2.53;;
20729;SDS011;10526;50.850;12.928;2024-02-15T11:44:20;8.13;;;3.03;;
20729;SDS011;10526;50.850;12.928;2024-02-15T11:48:44;5.90;;;2.30;;
20729;SDS011;10526;50.850;12.928;2024-02-15T11:53:07;6.53;;;2.30;;
20729;SDS011;10526;50.850;12.928;2024-02-15T11:57:32;8.07;;;2.58;;
20729;SDS011;10526;50.850;12.928;2024-02-15T12:02:09;7.50;;;2.30;;
20729;SDS011;10526;50.850;12.928;2024-02-15T12:06:56;7.93;;;2.38;;
20729;SDS011;10526;50.850;12.928;2024-02-15T12:11:39;4.95;;;2.08;;
20729;SDS011;10526;50.850;12.928;2024-02-15T12:16:20;7.68;;;2.20;;
20729;SDS011;10526;50.850;12.928;2024-02-15T12:21:00;6.25;;;2.17;;
20729;SDS011;10526;50.850;12.928;2024-02-15T12:25:23;4.20;;;1.92;;
20729;SDS011;10526;50.850;12.928;2024-02-15T12:29:52;5.38;;;1.98;;
20729;SDS011;10526;50.850;12.928;2024-02-15T12:34:20;13.77;;;5.43;;
20729;SDS011;10526;50.850;12.928;2024-02-15T12:38:42;10.40;;;2.47;;
20729;SDS011;10526;50.850;12.928;2024-02-15T12:43:06;3.65;;;1.50;;
20729;SDS011;10526;50.850;12.928;2024-02-15T12:47:30;8.20;;;2.00;;
20729;SDS011;10526;50.850;12.928;2024-02-15T12:51:53;5.97;;;1.67;;
20729;SDS011;10526;50.850;12.928;2024-02-15T12:56:36;1.77;;;1.33;;
20729;SDS011;10526;50.850;12.928;2024-02-15T13:00:58;3.72;;;1.70;;
20729;SDS011;10526;50.850;12.928;2024-02-15T13:05:20;2.45;;;1.40;;
20729;SDS011;10526;50.850;12.928;2024-02-15T13:09:43;2.65;;;1.40;;
20729;SDS011;10526;50.850;12.928;2024-02-15T13:14:07;5.40;;;1.70;;
20729;SDS011;10526;50.850;12.928;2024-02-15T13:18:31;4.50;;;1.70;;
20729;SDS011;10526;50.850;12.928;2024-02-15T13:22:55;5.07;;;1.50;;
20729;SDS011;10526;50.850;12.928;2024-02-15T13:27:21;4.18;;;1.50;;
20729;SDS011;10526;50.850;12.928;2024-02-15T13:31:44;4.95;;;1.55;;
20729;SDS011;10526;50.850;12.928;2024-02-15T13:36:07;3.65;;;1.50;;
20729;SDS011;10526;50.850;12.928;2024-02-15T13:40:32;4.18;;;1.70;;
20729;SDS011;10526;50.850;12.928;2024-02-15T13:44:54;4.72;;;1.80;;
20729;SDS011;10526;50.850;12.928;2024-02-15T13:49:17;2.22;;;1.25;;
20729;SDS011;10526;50.850;12.928;2024-02-15T13:53:49;4.50;;;2.05;;
20729;SDS011;10526;50.850;12.928;2024-02-15T13:58:11;2.72;;;1.65;;
20729;SDS011;10526;50.850;12.928;2024-02-15T14:02:34;8.15;;;2.25;;
20729;SDS011;10526;50.850;12.928;2024-02-15T14:06:56;4.97;;;2.05;;
20729;SDS011;10526;50.850;12.928;2024-02-15T14:11:18;6.15;;;1.80;;
20729;SDS011;10526;50.850;12.928;2024-02-15T14:15:41;3.78;;;1.77;;
20729;SDS011;10526;50.850;12.928;2024-02-15T14:20:04;2.90;;;1.52;;
20729;SDS011;10526;50.850;12.928;2024-02-15T14:24:34;6.72;;;1.75;;
20729;SDS011;10526;50.850;12.928;2024-02-15T14:28:56;1.98;;;1.35;;
20729;SDS011;10526;50.850;12.928;2024-02-15T14:33:18;9.00;;;2.25;;
20729;SDS011;10526;50.850;12.928;2024-02-15T14:37:43;6.80;;;2.13;;
20729;SDS011;10526;50.850;12.928;2024-02-15T14:42:05;3.53;;;1.60;;
20729;SDS011;10526;50.850;12.928;2024-02-15T14:46:30;5.00;;;1.70;;
20729;SDS011;10526;50.850;12.928;2024-02-15T14:50:56;4.85;;;1.80;;
20729;SDS011;10526;50.850;12.928;2024-02-15T14:55:19;6.00;;;1.77;;
20729;SDS011;10526;50.850;12.928;2024-02-15T14:59:41;6.18;;;2.22;;
20729;SDS011;10526;50.850;12.928;2024-02-15T15:04:04;7.18;;;1.83;;
20729;SDS011;10526;50.850;12.928;2024-02-15T15:08:28;3.92;;;1.52;;
20729;SDS011;10526;50.850;12.928;2024-02-15T15:13:09;3.92;;;1.27;;
20729;SDS011;10526;50.850;12.928;2024-02-15T15:17:31;9.93;;;3.05;;
20729;SDS011;10526;50.850;12.928;2024-02-15T15:21:53;4.22;;;1.63;;
20729;SDS011;10526;50.850;12.928;2024-02-15T15:26:19;2.72;;;1.50;;
20729;SDS011;10526;50.850;12.928;2024-02-15T15:30:42;4.55;;;2.10;;
20729;SDS011;10526;50.850;12.928;2024-02-15T15:35:10;7.00;;;1.70;;
20729;SDS011;10526;50.850;12.928;2024-02-15T15:39:33;4.75;;;1.65;;
20729;SDS011;10526;50.850;12.928;2024-02-15T15:43:57;5.15;;;2.00;;
20729;SDS011;10526;50.850;12.928;2024-02-15T15:48:23;8.52;;;1.80;;
20729;SDS011;10526;50.850;12.928;2024-02-15T15:52:45;2.97;;;1.52;;
20729;SDS011;10526;50.850;12.928;2024-02-15T15:57:07;3.70;;;1.30;;
20729;SDS011;10526;50.850;12.928;2024-02-15T16:01:30;3.65;;;1.58;;
20729;SDS011;10526;50.850;12.928;2024-02-15T16:05:52;3.25;;;1.65;;
20729;SDS011;10526;50.850;12.928;2024-02-15T16:10:16;2.67;;;1.50;;
20729;SDS011;10526;50.850;12.928;2024-02-15T16:14:39;2.25;;;1.60;;
20729;SDS011;10526;50.850;12.928;2024-02-15T16:19:02;4.78;;;1.73;;
20729;SDS011;10526;50.850;12.928;2024-02-15T16:23:25;4.50;;;1.58;;
20729;SDS011;10526;50.850;12.928;2024-02-15T16:27:48;2.85;;;1.67;;
20729;SDS011;10526;50.850;12.928;2024-02-15T16:32:10;4.88;;;1.95;;
20729;SDS011;10526;50.850;12.928;2024-02-15T16:36:32;4.25;;;2.28;;
20729;SDS011;10526;50.850;12.928;2024-02-15T16:40:54;3.95;;;2.28;;
20729;SDS011;10526;50.850;12.928;2024-02-15T16:45:16;8.40;;;2.10;;
20729;SDS011;10526;50.850;12.928;2024-02-15T16:49:41;7.13;;;2.55;;
20729;SDS011;10526;50.850;12.928;2024-02-15T16:54:06;3.03;;;1.77;;
20729;SDS011;10526;50.850;12.928;2024-02-15T16:58:29;4.47;;;2.30;;
20729;SDS011;10526;50.850;12.928;2024-02-15T17:02:53;4.15;;;2.10;;
20729;SDS011;10526;50.850;12.928;2024-02-15T17:07:15;6.88;;;2.70;;
20729;SDS011;10526;50.850;12.928;2024-02-15T17:11:38;5.65;;;2.13;;
20729;SDS011;10526;50.850;12.928;2024-02-15T17:16:01;5.38;;;2.08;;
20729;SDS011;10526;50.850;12.928;2024-02-15T17:20:23;4.88;;;2.33;;
20729;SDS011;10526;50.850;12.928;2024-02-15T17:24:46;6.88;;;2.60;;
20729;SDS011;10526;50.850;12.928;2024-02-15T17:29:08;7.68;;;3.00;;
20729;SDS011;10526;50.850;12.928;2024-02-15T17:33:31;7.57;;;3.00;;
20729;SDS011;10526;50.850;12.928;2024-02-15T17:37:53;8.43;;;3.30;;
20729;SDS011;10526;50.850;12.928;2024-02-15T17:42:15;7.28;;;2.97;;
20729;SDS011;10526;50.850;12.928;2024-02-15T17:46:37;6.53;;;3.17;;
20729;SDS011;10526;50.850;12.928;2024-02-15T17:51:00;10.32;;;3.13;;
20729;SDS011;10526;50.850;12.928;2024-02-15T17:55:22;8.52;;;3.55;;
20729;SDS011;10526;50.850;12.928;2024-02-15T17:59:44;6.80;;;3.25;;
20729;SDS011;10526;50.850;12.928;2024-02-15T18:04:06;9.75;;;3.25;;
20729;SDS011;10526;50.850;12.928;2024-02-15T18:08:29;9.13;;;3.22;;
20729;SDS011;10526;50.850;12.928;2024-02-15T18:12:50;7.20;;;2.90;;
20729;SDS011;10526;50.850;12.928;2024-02-15T18:17:14;10.00;;;3.20;;
20729;SDS011;10526;50.850;12.928;2024-02-15T18:21:36;5.88;;;2.88;;
20729;SDS011;10526;50.850;12.928;2024-02-15T18:25:58;10.25;;;2.90;;
20729;SDS011;10526;50.850;12.928;2024-02-15T18:30:23;8.18;;;2.80;;
20729;SDS011;10526;50.850;12.928;2024-02-15T18:34:52;9.88;;;3.75;;
20729;SDS011;10526;50.850;12.928;2024-02-15T18:39:14;9.18;;;3.53;;
20729;SDS011;10526;50.850;12.928;2024-02-15T18:43:37;8.10;;;3.47;;
20729;SDS011;10526;50.850;12.928;2024-02-15T18:47:59;10.38;;;3.63;;
20729;SDS011;10526;50.850;12.928;2024-02-15T18:52:25;7.75;;;3.15;;
20729;SDS011;10526;50.850;12.928;2024-02-15T18:56:48;6.90;;;3.20;;
20729;SDS011;10526;50.850;12.928;2024-02-15T19:01:16;6.43;;;3.10;;
20729;SDS011;10526;50.850;12.928;2024-02-15T19:05:38;9.75;;;3.28;;
20729;SDS011;10526;50.850;12.928;2024-02-15T19:10:01;8.32;;;3.47;;
20729;SDS011;10526;50.850;12.928;2024-02-15T19:14:24;7.03;;;3.38;;
20729;SDS011;10526;50.850;12.928;2024-02-15T19:18:46;8.20;;;4.00;;
20729;SDS011;10526;50.850;12.928;2024-02-15T19:23:08;8.90;;;3.90;;
20729;SDS011;10526;50.850;12.928;2024-02-15T19:27:31;11.02;;;4.35;;
20729;SDS011;10526;50.850;12.928;2024-02-15T19:31:53;11.52;;;4.20;;
20729;SDS011;10526;50.850;12.928;2024-02-15T19:36:16;11.93;;;4.72;;
20729;SDS011;10526;50.850;12.928;2024-02-15T19:40:39;9.10;;;4.30;;
20729;SDS011;10526;50.850;12.928;2024-02-15T19:45:03;12.98;;;4.60;;
20729;SDS011;10526;50.850;12.928;2024-02-15T19:49:26;13.07;;;4.78;;
20729;SDS011;10526;50.850;12.928;2024-02-15T19:53:48;10.68;;;4.28;;
20729;SDS011;10526;50.850;12.928;2024-02-15T19:58:12;11.82;;;4.70;;
20729;SDS011;10526;50.850;12.928;2024-02-15T20:02:34;12.15;;;4.93;;
20729;SDS011;10526;50.850;12.928;2024-02-15T20:06:57;10.60;;;4.70;;
20729;SDS011;10526;50.850;12.928;2024-02-15T20:11:23;10.85;;;4.68;;
20729;SDS011;10526;50.850;12.928;2024-02-15T20:15:49;13.93;;;4.93;;
20729;SDS011;10526;50.850;12.928;2024-02-15T20:20:15;15.13;;;5.28;;
20729;SDS011;10526;50.850;12.928;2024-02-15T20:24:40;15.18;;;5.93;;
20729;SDS011;10526;50.850;12.928;2024-02-15T20:29:03;14.55;;;6.30;;
20729;SDS011;10526;50.850;12.928;2024-02-15T20:33:25;13.23;;;5.35;;
20729;SDS011;10526;50.850;12.928;2024-02-15T20:37:50;13.80;;;5.75;;
20729;SDS011;10526;50.850;12.928;2024-02-15T20:42:13;15.57;;;7.03;;
20729;SDS011;10526;50.850;12.928;2024-02-15T20:46:37;14.82;;;5.75;;
20729;SDS011;10526;50.850;12.928;2024-02-15T20:50:59;15.48;;;6.03;;
20729;SDS011;10526;50.850;12.928;2024-02-15T20:55:22;14.70;;;5.75;;
20729;SDS011;10526;50.850;12.928;2024-02-15T20:59:44;10.65;;;4.63;;
20729;SDS011;10526;50.850;12.928;2024-02-15T21:04:06;9.00;;;4.28;;
20729;SDS011;10526;50.850;12.928;2024-02-15T21:08:32;10.65;;;4.55;;
20729;SDS011;10526;50.850;12.928;2024-02-15T21:12:55;12.93;;;4.97;;
20729;SDS011;10526;50.850;12.928;2024-02-15T21:17:21;12.57;;;5.63;;
20729;SDS011;10526;50.850;12.928;2024-02-15T21:21:44;11.15;;;4.65;;
20729;SDS011;10526;50.850;12.928;2024-02-15T21:26:07;13.15;;;4.82;;
20729;SDS011;10526;50.850;12.928;2024-02-15T21:30:30;12.85;;;4.30;;
20729;SDS011;10526;50.850;12.928;2024-02-15T21:34:52;11.13;;;4.72;;
20729;SDS011;10526;50.850;12.928;2024-02-15T21:39:15;11.63;;;4.38;;
20729;SDS011;10526;50.850;12.928;2024-02-15T21:43:37;12.07;;;4.57;;
20729;SDS011;10526;50.850;12.928;2024-02-15T21:47:59;14.68;;;4.95;;
20729;SDS011;10526;50.850;12.928;2024-02-15T21:52:21;13.55;;;6.82;;
20729;SDS011;10526;50.850;12.928;2024-02-15T21:56:43;11.73;;;4.40;;
20729;SDS011;10526;50.850;12.928;2024-02-15T22:01:07;10.77;;;3.92;;
20729;SDS011;10526;50.850;12.928;2024-02-15T22:05:29;11.93;;;4.15;;
20729;SDS011;10526;50.850;12.928;2024-02-15T22:09:51;13.55;;;4.53;;
20729;SDS011;10526;50.850;12.928;2024-02-15T22:14:13;9.80;;;3.92;;
20729;SDS011;10526;50.850;12.928;2024-02-15T22:18:35;13.23;;;5.07;;
20729;SDS011;10526;50.850;12.928;2024-02-15T22:22:58;13.13;;;5.53;;
20729;SDS011;10526;50.850;12.928;2024-02-15T22:27:20;13.25;;;5.00;;
20729;SDS011;10526;50.850;12.928;2024-02-15T22:31:46;12.00;;;5.28;;
20729;SDS011;10526;50.850;12.928;2024-02-15T22:36:18;13.40;;;4.90;;
20729;SDS011;10526;50.850;12.928;2024-02-15T22:40:47;15.88;;;5.47;;
20729;SDS011;10526;50.850;12.928;2024-02-15T22:45:09;12.93;;;5.63;;
20729;SDS011;10526;50.850;12.928;2024-02-15T22:49:33;12.40;;;4.95;;
20729;SDS011;10526;50.850;12.928;2024-02-15T22:53:55;14.23;;;5.75;;
20729;SDS011;10526;50.850;12.928;2024-02-15T22:58:17;12.50;;;5.30;;
20729;SDS011;10526;50.850;12.928;2024-02-15T23:02:39;15.95;;;5.93;;
20729;SDS011;10526;50.850;12.928;2024-02-15T23:07:01;13.60;;;5.07;;
20729;SDS011;10526;50.850;12.928;2024-02-15T23:11:29;16.80;;;5.50;;
20729;SDS011;10526;50.850;12.928;2024-02-15T23:15:53;15.98;;;5.78;;
20729;SDS011;10526;50.850;12.928;2024-02-15T23:20:14;11.65;;;5.20;;
20729;SDS011;10526;50.850;12.928;2024-02-15T23:24:36;15.65;;;5.35;;
20729;SDS011;10526;50.850;12.928;2024-02-15T23:28:58;14.13;;;5.25;;
20729;SDS011;10526;50.850;12.928;2024-02-15T23:33:20;12.65;;;5.65;;
20729;SDS011;10526;50.850;12.928;2024-02-15T23:37:43;10.95;;;4.90;;
20729;SDS011;10526;50.850;12.928;2024-02-15T23:42:24;11.77;;;5.00;;
20729;SDS011;10526;50.850;12.928;2024-02-15T23:46:47;13.68;;;5.20;;
20729;SDS011;10526;50.850;12.928;2024-02-15T23:51:09;15.93;;;5.50;;
20729;SDS011;10526;50.850;12.928;2024-02-15T23:55:32;11.63;;;4.78;;
20729;SDS011;10526;50.850;12.928;2024-02-15T23:59:55;11.60;;;4.13;;
